Time;durP1;ratioP1;P1;durP2;ratioP2;P2;SDS_P1;SDS_P2;PMS_P1;PMS_P2;Temp;Humidity;BMP_temperature;BMP_pressure;BME280_temperature;BME280_humidity;BME280_pressure;Samples;Min_cycle;Max_cycle;Signal;HPM_P1;HPM_P2
2024/02/14 00:01:39;;;;;;;3.47;2.97;;;11.30;82.60;;;;;;5034016;28;20041;-85
2024/02/14 00:04:07;;;;;;;3.95;3.25;;;11.20;82.60;;;;;;5034772;28;20024;-96
2024/02/14 00:06:36;;;;;;;4.30;3.15;;;11.20;82.60;;;;;;5022755;28;20057;-85
2024/02/14 00:09:03;;;;;;;3.72;2.75;;;11.20;82.60;;;;;;5030753;28;20021;-95
2024/02/14 00:11:29;;;;;;;3.65;3.05;;;11.20;82.60;;;;;;5014750;28;20492;-86
2024/02/14 00:13:56;;;;;;;3.17;2.80;;;11.20;82.60;;;;;;5019243;28;20024;-86
2024/02/14 00:16:22;;;;;;;3.58;3.00;;;11.30;82.60;;;;;;5026433;28;20424;-88
2024/02/14 00:18:48;;;;;;;3.67;2.72;;;11.20;82.60;;;;;;5010696;28;20276;-95
2024/02/14 00:21:13;;;;;;;3.10;2.80;;;11.30;82.70;;;;;;5029972;28;20541;-81
2024/02/14 00:23:39;;;;;;;4.18;3.03;;;11.20;82.60;;;;;;5024983;28;20022;-81
2024/02/14 00:26:05;;;;;;;4.65;3.08;;;11.30;82.70;;;;;;5012790;28;20029;-86
2024/02/14 00:28:30;;;;;;;4.53;3.10;;;11.30;82.70;;;;;;5010948;28;20505;-95
2024/02/14 00:30:56;;;;;;;3.50;2.97;;;11.20;82.60;;;;;;5018650;28;20034;-86
2024/02/14 00:33:22;;;;;;;4.03;3.20;;;11.20;82.60;;;;;;4996057;28;20421;-89
2024/02/14 00:35:48;;;;;;;3.60;3.00;;;11.20;82.60;;;;;;5032007;28;20116;-89
2024/02/14 00:38:14;;;;;;;3.63;3.00;;;11.20;82.60;;;;;;5036359;28;20029;-95
2024/02/14 00:40:39;;;;;;;3.22;2.90;;;11.30;82.70;;;;;;5031286;28;20062;-80
2024/02/14 00:43:05;;;;;;;3.60;2.97;;;11.30;82.70;;;;;;5017268;28;20487;-88
2024/02/14 00:45:31;;;;;;;4.43;3.08;;;11.30;82.70;;;;;;4991512;28;20064;-89
2024/02/14 00:47:57;;;;;;;3.55;2.90;;;11.30;82.70;;;;;;5028804;28;20021;-95
2024/02/14 00:50:22;;;;;;;3.38;2.90;;;11.30;82.60;;;;;;5043328;28;20030;-85
2024/02/14 00:52:48;;;;;;;2.97;2.67;;;11.30;82.60;;;;;;5010035;28;20120;-85
2024/02/14 00:55:14;;;;;;;3.50;2.95;;;11.30;82.70;;;;;;5030232;28;20018;-81
2024/02/14 00:57:40;;;;;;;3.45;3.13;;;11.30;82.70;;;;;;5012122;28;20036;-89
2024/02/14 01:00:07;;;;;;;3.72;2.83;;;11.30;82.60;;;;;;5030629;28;20030;-85
2024/02/14 01:02:32;;;;;;;4.25;3.03;;;11.30;82.70;;;;;;4997349;28;20073;-94
2024/02/14 01:04:58;;;;;;;3.70;2.85;;;11.30;82.70;;;;;;5010909;28;20042;-89
2024/02/14 01:07:24;;;;;;;3.22;2.90;;;11.30;82.70;;;;;;5028777;28;20517;-80
2024/02/14 01:09:50;;;;;;;4.57;3.20;;;11.30;82.60;;;;;;5014031;28;20171;-96
2024/02/14 01:12:16;;;;;;;3.95;3.03;;;11.30;82.60;;;;;;5029925;28;20096;-80
2024/02/14 01:14:42;;;;;;;3.15;2.83;;;11.30;82.60;;;;;;5025664;28;20026;-88
2024/02/14 01:17:08;;;;;;;4.70;3.00;;;11.30;82.60;;;;;;5011120;28;20159;-80
2024/02/14 01:19:34;;;;;;;3.88;3.33;;;11.30;82.70;;;;;;5008586;28;20022;-80
2024/02/14 01:22:01;;;;;;;4.15;3.30;;;11.30;82.70;;;;;;5023709;28;20103;-96
2024/02/14 01:24:27;;;;;;;4.10;3.17;;;11.30;82.70;;;;;;5018941;28;20064;-81
2024/02/14 01:26:55;;;;;;;3.63;3.03;;;11.30;82.70;;;;;;5002855;28;20025;-95
2024/02/14 01:29:23;;;;;;;4.93;3.08;;;11.30;82.70;;;;;;5013613;28;20037;-85
2024/02/14 01:31:50;;;;;;;3.90;3.33;;;11.30;82.70;;;;;;4994538;28;20038;-89
2024/02/14 01:34:16;;;;;;;3.50;2.88;;;11.30;82.70;;;;;;4995744;28;20061;-89
2024/02/14 01:36:41;;;;;;;3.88;3.20;;;11.30;82.70;;;;;;5000896;28;20056;-85
2024/02/14 01:39:10;;;;;;;3.58;3.00;;;11.30;82.70;;;;;;5019348;28;20026;-81
2024/02/14 01:41:38;;;;;;;4.60;3.40;;;11.30;82.70;;;;;;4986438;28;20210;-81
2024/02/14 01:44:04;;;;;;;4.10;3.13;;;11.30;82.70;;;;;;5018271;28;20018;-81
2024/02/14 01:46:30;;;;;;;4.57;2.92;;;11.30;82.70;;;;;;4995009;28;20030;-94
2024/02/14 01:48:56;;;;;;;3.60;2.97;;;11.30;82.70;;;;;;5012549;28;20037;-89
2024/02/14 01:51:24;;;;;;;5.07;3.20;;;11.40;82.70;;;;;;5031751;28;20034;-96
2024/02/14 01:53:52;;;;;;;3.53;3.00;;;11.30;82.70;;;;;;5034825;28;20026;-85
2024/02/14 01:56:18;;;;;;;4.18;3.30;;;11.30;82.60;;;;;;5029889;28;20037;-90
2024/02/14 01:58:44;;;;;;;3.88;3.20;;;11.30;82.60;;;;;;5032259;28;20034;-96
2024/02/14 02:01:12;;;;;;;5.50;3.25;;;11.40;82.70;;;;;;5040941;28;20038;-85
2024/02/14 02:03:37;;;;;;;4.85;3.40;;;11.30;82.60;;;;;;4998417;28;20089;-85
2024/02/14 02:06:06;;;;;;;4.63;3.28;;;11.30;82.60;;;;;;5011010;28;20021;-89
2024/02/14 02:08:33;;;;;;;3.95;3.25;;;11.40;82.60;;;;;;5001361;28;20375;-85
2024/02/14 02:10:59;;;;;;;4.55;3.58;;;11.30;82.60;;;;;;5040662;28;20466;-85
2024/02/14 02:13:25;;;;;;;4.70;3.38;;;11.30;82.60;;;;;;5029134;28;20029;-85
2024/02/14 02:15:53;;;;;;;5.55;3.83;;;11.40;82.60;;;;;;5028365;28;20444;-81
2024/02/14 02:18:19;;;;;;;4.60;3.40;;;11.40;82.60;;;;;;5013352;28;20026;-88
2024/02/14 02:20:45;;;;;;;4.68;3.05;;;11.40;82.60;;;;;;5039062;28;20038;-96
2024/02/14 02:23:16;;;;;;;4.47;3.47;;;11.40;82.60;;;;;;5016936;28;20049;-89
2024/02/14 02:25:42;;;;;;;4.07;3.20;;;11.40;82.60;;;;;;5025887;28;20036;-96
2024/02/14 02:28:09;;;;;;;4.50;3.35;;;11.40;82.60;;;;;;5029890;28;20025;-85
2024/02/14 02:30:36;;;;;;;3.90;3.22;;;11.40;82.60;;;;;;5021035;28;20033;-87
2024/02/14 02:33:03;;;;;;;4.00;3.30;;;11.40;82.60;;;;;;4987316;28;20026;-88
2024/02/14 02:35:31;;;;;;;4.57;3.30;;;11.40;82.60;;;;;;5025044;28;20029;-96
2024/02/14 02:37:57;;;;;;;5.05;3.78;;;11.50;82.60;;;;;;5030871;28;20037;-96
2024/02/14 02:40:24;;;;;;;4.30;3.33;;;11.40;82.50;;;;;;5007981;28;20034;-85
2024/02/14 02:42:53;;;;;;;4.25;3.40;;;11.40;82.60;;;;;;5025041;28;20113;-96
2024/02/14 02:45:19;;;;;;;4.45;3.47;;;11.40;82.60;;;;;;5028780;28;20041;-85
2024/02/14 02:47:47;;;;;;;4.82;3.40;;;11.40;82.60;;;;;;5025414;28;20029;-96
2024/02/14 02:50:15;;;;;;;4.47;3.67;;;11.50;82.60;;;;;;5115843;22;20045;-85
2024/02/14 02:52:41;;;;;;;4.10;3.33;;;11.40;82.50;;;;;;5055997;28;20036;-86
2024/02/14 02:55:07;;;;;;;4.70;3.63;;;11.50;82.60;;;;;;5066887;23;20079;-96
2024/02/14 02:57:41;;;;;;;4.72;3.47;;;11.50;82.60;;;;;;5055193;22;20057;-96
2024/02/14 03:00:07;;;;;;;4.75;3.53;;;11.50;82.60;;;;;;5031702;28;20056;-88
2024/02/14 03:02:34;;;;;;;4.97;4.03;;;11.50;82.60;;;;;;5015856;28;20030;-87
2024/02/14 03:05:00;;;;;;;4.68;3.70;;;11.50;82.50;;;;;;5035310;28;20497;-88
2024/02/14 03:07:27;;;;;;;5.70;3.58;;;11.50;82.50;;;;;;5037442;28;20112;-89
2024/02/14 03:09:56;;;;;;;4.63;3.20;;;11.50;82.60;;;;;;5014921;28;20045;-88
2024/02/14 03:12:23;;;;;;;5.85;4.40;;;11.50;82.50;;;;;;5031068;28;20549;-80
2024/02/14 03:14:49;;;;;;;4.88;4.03;;;11.50;82.50;;;;;;5037605;28;20057;-80
2024/02/14 03:17:16;;;;;;;4.60;3.47;;;11.50;82.60;;;;;;5021099;28;20037;-88
2024/02/14 03:19:42;;;;;;;5.07;3.83;;;11.50;82.50;;;;;;5013687;28;20393;-95
2024/02/14 03:22:09;;;;;;;5.10;3.58;;;11.50;82.50;;;;;;5038328;28;20017;-80
2024/02/14 03:24:36;;;;;;;5.63;3.45;;;11.50;82.50;;;;;;5028244;28;20033;-88
2024/02/14 03:27:04;;;;;;;4.95;3.67;;;11.60;82.50;;;;;;5034435;28;20082;-96
2024/02/14 03:29:30;;;;;;;4.55;3.67;;;11.50;82.50;;;;;;5035043;28;20541;-79
2024/02/14 03:31:58;;;;;;;4.72;3.67;;;11.60;82.50;;;;;;5013903;28;20506;-95
2024/02/14 03:34:25;;;;;;;4.40;3.55;;;11.60;82.50;;;;;;5041723;28;20037;-92
2024/02/14 03:36:50;;;;;;;4.93;3.72;;;11.60;82.50;;;;;;5205022;22;20057;-80
2024/02/14 03:39:17;;;;;;;4.97;3.40;;;11.60;82.50;;;;;;5012245;28;20021;-84
2024/02/14 03:41:46;;;;;;;4.88;3.55;;;11.60;82.50;;;;;;5003095;28;20470;-79
2024/02/14 03:44:15;;;;;;;5.20;3.80;;;11.60;82.50;;;;;;4992120;28;20065;-87
2024/02/14 03:46:41;;;;;;;5.00;3.72;;;11.60;82.50;;;;;;5023319;28;20055;-95
2024/02/14 03:49:07;;;;;;;4.97;3.90;;;11.60;82.50;;;;;;5127157;22;20151;-88
2024/02/14 03:51:33;;;;;;;5.18;3.72;;;11.60;82.50;;;;;;5041066;28;20068;-88
2024/02/14 03:53:59;;;;;;;6.68;4.13;;;11.60;82.50;;;;;;5036801;28;20017;-85
2024/02/14 03:56:26;;;;;;;6.10;3.65;;;11.60;82.50;;;;;;5025241;28;20055;-94
2024/02/14 03:58:52;;;;;;;5.13;3.92;;;11.60;82.50;;;;;;5015014;28;20033;-85
2024/02/14 04:01:20;;;;;;;4.90;3.67;;;11.60;82.40;;;;;;5033888;28;20033;-96
2024/02/14 04:03:47;;;;;;;5.57;3.97;;;11.70;82.50;;;;;;5033185;28;20036;-94
2024/02/14 04:06:13;;;;;;;4.78;3.83;;;11.70;82.50;;;;;;5022725;28;20121;-95
2024/02/14 04:08:39;;;;;;;4.25;3.63;;;11.70;82.50;;;;;;5016404;28;20073;-85
2024/02/14 04:11:05;;;;;;;4.30;3.80;;;11.70;82.50;;;;;;5008987;28;20030;-85
2024/02/14 04:13:30;;;;;;;5.63;4.20;;;11.70;82.40;;;;;;5020820;28;20053;-85
2024/02/14 04:15:56;;;;;;;6.18;4.43;;;11.70;82.40;;;;;;5022759;28;20071;-87
2024/02/14 04:18:22;;;;;;;5.53;4.00;;;11.70;82.40;;;;;;5019100;28;20444;-80
2024/02/14 04:20:48;;;;;;;6.63;4.18;;;11.70;82.40;;;;;;5031429;28;20028;-96
2024/02/14 04:23:14;;;;;;;7.25;4.30;;;11.70;82.40;;;;;;5029263;28;20052;-86
2024/02/14 04:25:41;;;;;;;4.72;4.00;;;11.70;82.40;;;;;;5029086;28;20489;-88
2024/02/14 04:28:07;;;;;;;4.75;4.05;;;11.70;82.50;;;;;;5041992;28;20025;-96
2024/02/14 04:30:33;;;;;;;5.25;4.32;;;11.70;82.40;;;;;;5037062;28;20116;-80
2024/02/14 04:32:59;;;;;;;5.72;4.43;;;11.70;82.40;;;;;;5016436;28;20033;-81
2024/02/14 04:35:25;;;;;;;5.00;4.07;;;11.70;82.40;;;;;;5024291;28;20032;-96
2024/02/14 04:37:52;;;;;;;5.97;4.53;;;11.70;82.40;;;;;;5030962;28;20038;-86
2024/02/14 04:40:18;;;;;;;6.78;4.68;;;11.80;82.40;;;;;;5021536;28;20393;-88
2024/02/14 04:42:44;;;;;;;5.63;4.15;;;11.70;82.40;;;;;;5014992;28;20164;-81
2024/02/14 04:45:10;;;;;;;5.93;4.70;;;11.80;82.40;;;;;;5037400;28;20046;-96
2024/02/14 04:47:36;;;;;;;5.70;4.60;;;11.80;82.40;;;;;;5019108;28;20544;-88
2024/02/14 04:50:06;;;;;;;5.45;4.65;;;11.80;82.50;;;;;;5022368;28;20002;-92
2024/02/14 04:52:32;;;;;;;6.28;4.57;;;11.80;82.40;;;;;;5035926;28;20107;-80
2024/02/14 04:54:58;;;;;;;6.13;4.70;;;11.80;82.40;;;;;;5192488;23;20041;-96
2024/02/14 04:57:24;;;;;;;6.10;4.55;;;11.80;82.40;;;;;;5081487;23;20049;-79
2024/02/14 04:59:49;;;;;;;5.88;4.85;;;11.80;82.40;;;;;;5032001;28;21371;-80
2024/02/14 05:02:15;;;;;;;6.63;4.80;;;11.80;82.40;;;;;;5042340;28;20582;-86
2024/02/14 05:04:41;;;;;;;5.97;5.05;;;11.80;82.40;;;;;;5013426;28;20022;-79
2024/02/14 05:07:07;;;;;;;5.63;4.75;;;11.80;82.40;;;;;;5111439;22;20080;-94
2024/02/14 05:09:33;;;;;;;7.13;4.97;;;11.90;83.00;;;;;;5002696;28;20512;-80
2024/02/14 05:11:59;;;;;;;6.40;5.03;;;11.90;82.40;;;;;;5006535;28;20152;-88
2024/02/14 05:14:25;;;;;;;6.88;5.22;;;11.80;82.90;;;;;;4990369;28;20034;-87
2024/02/14 05:16:51;;;;;;;5.95;5.10;;;11.90;82.40;;;;;;5016732;28;20018;-86
2024/02/14 05:19:17;;;;;;;5.75;5.00;;;11.90;82.40;;;;;;5001794;28;20504;-96
2024/02/14 05:21:43;;;;;;;6.05;4.90;;;11.90;82.40;;;;;;4984748;28;20034;-87
2024/02/14 05:24:09;;;;;;;5.93;5.32;;;11.90;82.40;;;;;;4989453;28;20033;-85
2024/02/14 05:26:35;;;;;;;6.45;5.10;;;11.90;82.40;;;;;;5051243;23;20060;-88
2024/02/14 05:29:01;;;;;;;5.90;4.88;;;11.90;82.40;;;;;;5063537;28;20052;-85
2024/02/14 05:31:45;;;;;;;6.28;4.90;;;11.90;82.40;;;;;;5026230;28;20147;-86
2024/02/14 05:34:12;;;;;;;8.32;5.18;;;11.90;82.40;;;;;;5052710;28;20024;-86
2024/02/14 05:36:38;;;;;;;6.00;4.93;;;11.90;82.30;;;;;;5055682;28;20049;-96
2024/02/14 05:39:05;;;;;;;6.75;5.30;;;11.90;82.30;;;;;;5049361;28;20029;-85
2024/02/14 05:41:32;;;;;;;6.18;5.05;;;11.90;82.30;;;;;;5031222;28;20138;-86
2024/02/14 05:43:59;;;;;;;6.35;5.60;;;11.90;82.30;;;;;;5057340;28;20024;-80
2024/02/14 05:46:25;;;;;;;6.80;5.15;;;11.90;82.30;;;;;;5029974;28;20407;-94
2024/02/14 05:48:52;;;;;;;6.38;4.85;;;11.90;82.30;;;;;;5048757;28;20032;-79
2024/02/14 05:51:18;;;;;;;6.07;5.40;;;12.00;82.40;;;;;;5045183;28;20048;-84
2024/02/14 05:53:44;;;;;;;6.95;5.43;;;12.00;82.40;;;;;;5048942;28;20017;-83
2024/02/14 05:56:10;;;;;;;6.32;5.38;;;12.00;82.40;;;;;;5040919;28;20029;-86
2024/02/14 05:58:36;;;;;;;5.82;4.90;;;12.00;82.40;;;;;;5031783;28;20496;-85
2024/02/14 06:01:01;;;;;;;5.82;5.15;;;12.00;82.40;;;;;;5050523;28;20071;-89
2024/02/14 06:03:28;;;;;;;6.47;5.53;;;12.00;82.30;;;;;;5057571;28;20082;-85
2024/02/14 06:05:54;;;;;;;5.65;4.80;;;12.00;82.30;;;;;;5026902;28;20136;-81
2024/02/14 06:08:23;;;;;;;6.32;5.20;;;12.00;82.30;;;;;;5028432;28;20028;-81
2024/02/14 06:10:49;;;;;;;7.28;5.57;;;12.00;82.30;;;;;;5040452;28;20033;-94
2024/02/14 06:13:15;;;;;;;6.20;5.53;;;12.00;82.30;;;;;;5046388;28;20090;-81
2024/02/14 06:15:41;;;;;;;6.70;4.85;;;12.00;82.30;;;;;;5009626;28;20037;-86
2024/02/14 06:18:07;;;;;;;5.75;5.13;;;12.00;82.30;;;;;;5047785;28;20029;-90
2024/02/14 06:20:32;;;;;;;5.68;5.07;;;12.00;82.40;;;;;;5030718;28;20033;-81
2024/02/14 06:22:58;;;;;;;6.03;5.15;;;12.10;82.30;;;;;;5045485;28;20025;-87
2024/02/14 06:25:24;;;;;;;6.50;5.28;;;12.00;82.30;;;;;;5045705;28;20031;-85
2024/02/14 06:27:50;;;;;;;5.97;5.00;;;12.10;82.30;;;;;;5015480;28;20041;-93
2024/02/14 06:30:16;;;;;;;6.35;5.05;;;12.10;82.30;;;;;;5063045;28;20140;-95
2024/02/14 06:32:42;;;;;;;6.18;5.45;;;12.10;82.30;;;;;;5063721;28;20029;-95
2024/02/14 06:35:08;;;;;;;6.07;5.45;;;12.10;82.30;;;;;;5048079;28;20094;-86
2024/02/14 06:37:34;;;;;;;6.93;5.03;;;12.10;82.30;;;;;;5048058;28;20033;-86
2024/02/14 06:39:59;;;;;;;6.40;4.82;;;12.10;82.30;;;;;;5033475;28;20036;-81
2024/02/14 06:42:26;;;;;;;6.10;5.35;;;12.10;82.30;;;;;;5038045;28;20021;-81
2024/02/14 06:44:52;;;;;;;5.82;5.15;;;12.10;82.30;;;;;;5047367;28;20021;-85
2024/02/14 06:47:19;;;;;;;6.65;5.30;;;12.10;82.30;;;;;;5050841;28;20039;-84
2024/02/14 06:49:45;;;;;;;5.88;5.00;;;12.10;82.30;;;;;;5048685;28;20131;-94
2024/02/14 06:52:10;;;;;;;6.68;5.15;;;12.10;82.30;;;;;;5023792;28;20033;-92
2024/02/14 06:54:36;;;;;;;6.10;5.20;;;12.20;82.30;;;;;;5031581;28;20029;-84
2024/02/14 06:57:02;;;;;;;6.07;5.38;;;12.20;82.30;;;;;;5033968;28;20493;-80
2024/02/14 06:59:28;;;;;;;6.32;5.00;;;12.20;82.30;;;;;;5014242;28;20036;-84
2024/02/14 07:01:54;;;;;;;6.13;5.53;;;12.20;82.30;;;;;;5024938;28;20029;-80
2024/02/14 07:04:25;;;;;;;6.38;5.03;;;12.20;82.30;;;;;;5029059;28;20025;-88
2024/02/14 07:06:53;;;;;;;5.82;4.97;;;12.20;82.30;;;;;;5068619;28;20053;-96
2024/02/14 07:09:18;;;;;;;6.75;5.40;;;12.20;82.30;;;;;;5030333;28;20029;-84
2024/02/14 07:11:45;;;;;;;5.95;5.30;;;12.20;82.30;;;;;;5050129;28;20031;-86
2024/02/14 07:14:11;;;;;;;6.20;5.30;;;12.20;82.20;;;;;;5020909;28;20476;-81
2024/02/14 07:16:37;;;;;;;6.03;4.97;;;12.20;82.20;;;;;;5023820;28;20044;-88
2024/02/14 07:19:03;;;;;;;5.95;5.10;;;12.20;82.20;;;;;;5015500;28;20025;-80
2024/02/14 07:21:29;;;;;;;6.28;4.65;;;12.30;82.30;;;;;;5045816;28;20033;-95
2024/02/14 07:23:55;;;;;;;5.80;5.00;;;12.20;82.30;;;;;;5031837;28;20028;-89
2024/02/14 07:26:22;;;;;;;5.97;5.28;;;12.20;82.20;;;;;;5067406;28;20117;-89
2024/02/14 07:28:48;;;;;;;5.80;5.20;;;12.20;82.20;;;;;;5044459;28;20057;-95
2024/02/14 07:31:13;;;;;;;5.65;4.85;;;12.20;82.20;;;;;;5015455;28;20039;-96
2024/02/14 07:33:39;;;;;;;6.18;5.20;;;12.20;82.20;;;;;;5020003;28;20074;-90
2024/02/14 07:36:06;;;;;;;5.68;5.03;;;12.30;82.30;;;;;;5051103;28;20032;-82
2024/02/14 07:38:32;;;;;;;5.55;4.78;;;12.30;82.20;;;;;;5043138;28;20036;-88
2024/02/14 07:40:58;;;;;;;6.35;5.15;;;12.30;82.30;;;;;;5030701;28;20035;-83
2024/02/14 07:43:24;;;;;;;6.50;5.25;;;12.30;82.20;;;;;;5015173;28;20026;-86
2024/02/14 07:45:50;;;;;;;6.38;5.20;;;12.30;82.20;;;;;;5041702;28;20116;-88
2024/02/14 07:48:16;;;;;;;5.68;5.07;;;12.30;82.20;;;;;;5040538;28;20522;-86
2024/02/14 07:50:42;;;;;;;6.32;5.47;;;12.30;82.20;;;;;;5060710;28;20539;-87
2024/02/14 07:53:07;;;;;;;5.70;5.00;;;12.30;82.20;;;;;;5047836;28;20033;-86
2024/02/14 07:55:34;;;;;;;6.22;5.35;;;12.30;82.20;;;;;;5049879;28;20089;-82
2024/02/14 07:58:00;;;;;;;6.53;5.20;;;12.30;82.20;;;;;;5046740;28;20029;-96
2024/02/14 08:00:26;;;;;;;5.53;4.70;;;12.30;82.20;;;;;;5047534;28;20037;-83
2024/02/14 08:02:52;;;;;;;6.63;5.38;;;12.30;82.20;;;;;;5053461;28;20036;-82
2024/02/14 08:05:18;;;;;;;6.22;5.40;;;12.30;82.20;;;;;;5042079;28;20111;-86
2024/02/14 08:07:47;;;;;;;6.05;5.45;;;12.30;82.20;;;;;;5054341;28;20055;-87
2024/02/14 08:10:13;;;;;;;6.55;5.25;;;12.40;82.30;;;;;;5052660;28;20393;-87
2024/02/14 08:12:39;;;;;;;5.78;5.03;;;12.40;82.30;;;;;;5042710;28;20025;-82
2024/02/14 08:15:06;;;;;;;6.82;5.63;;;12.40;82.20;;;;;;5044913;28;20028;-81
2024/02/14 08:17:35;;;;;;;6.50;5.75;;;12.40;82.30;;;;;;5040178;28;20040;-81
2024/02/14 08:20:02;;;;;;;6.70;5.97;;;12.40;82.30;;;;;;5035390;28;20039;-96
2024/02/14 08:22:29;;;;;;;6.10;5.05;;;12.40;82.20;;;;;;5017209;28;20057;-81
2024/02/14 08:24:56;;;;;;;6.75;5.82;;;12.40;82.20;;;;;;5016993;28;20043;-95
2024/02/14 08:27:22;;;;;;;6.05;5.43;;;12.40;82.20;;;;;;5054801;28;20021;-81
2024/02/14 08:29:48;;;;;;;6.60;5.47;;;12.40;82.20;;;;;;5057822;28;20437;-95
2024/02/14 08:32:16;;;;;;;6.22;5.55;;;12.40;82.20;;;;;;5053050;28;20123;-80
2024/02/14 08:34:42;;;;;;;6.53;5.28;;;12.50;82.20;;;;;;5047494;28;20029;-95
2024/02/14 08:37:08;;;;;;;6.45;5.85;;;12.50;82.20;;;;;;5036524;28;20025;-80
2024/02/14 08:39:34;;;;;;;7.25;5.70;;;12.40;82.20;;;;;;5081689;28;20029;-87
2024/02/14 08:42:07;;;;;;;7.35;5.45;;;12.50;82.20;;;;;;5045579;28;20042;-96
2024/02/14 08:44:34;;;;;;;6.50;5.57;;;12.50;82.20;;;;;;5045954;28;20097;-94
2024/02/14 08:47:00;;;;;;;6.22;5.63;;;12.50;82.20;;;;;;5068154;28;20036;-95
2024/02/14 08:49:26;;;;;;;6.07;5.25;;;12.50;82.20;;;;;;5048962;28;20021;-82
2024/02/14 08:51:52;;;;;;;6.20;5.60;;;12.50;82.20;;;;;;5049212;28;20040;-81
2024/02/14 08:54:17;;;;;;;5.97;5.18;;;12.50;82.20;;;;;;5052431;28;20029;-87
2024/02/14 08:56:43;;;;;;;6.30;5.35;;;12.50;82.10;;;;;;5034067;28;20021;-86
2024/02/14 08:59:10;;;;;;;6.25;5.32;;;12.50;82.20;;;;;;5048006;28;20025;-87
2024/02/14 09:01:39;;;;;;;6.40;5.78;;;12.60;82.20;;;;;;5057818;28;20045;-87
2024/02/14 09:04:05;;;;;;;6.55;5.53;;;12.50;82.10;;;;;;5062472;28;20025;-88
2024/02/14 09:06:32;;;;;;;6.15;4.95;;;12.50;82.10;;;;;;5064651;28;20437;-87
2024/02/14 09:08:58;;;;;;;5.90;5.18;;;12.60;82.20;;;;;;5043409;28;20067;-86
2024/02/14 09:11:25;;;;;;;6.00;5.32;;;12.60;82.20;;;;;;5046311;28;20029;-81
2024/02/14 09:13:54;;;;;;;5.63;5.03;;;12.60;82.20;;;;;;5042266;28;20028;-82
2024/02/14 09:16:22;;;;;;;5.97;5.18;;;12.60;82.20;;;;;;5052543;28;20020;-87
2024/02/14 09:18:47;;;;;;;6.15;5.20;;;12.60;82.20;;;;;;5044150;28;20026;-94
2024/02/14 09:21:15;;;;;;;7.63;5.30;;;12.60;82.10;;;;;;5081051;28;20032;-86
2024/02/14 09:23:41;;;;;;;6.47;5.60;;;12.60;82.10;;;;;;5065951;28;20029;-86
2024/02/14 09:26:08;;;;;;;6.75;5.35;;;12.60;82.10;;;;;;5050934;28;20420;-94
2024/02/14 09:28:35;;;;;;;5.85;5.22;;;12.70;82.20;;;;;;5047168;28;20416;-82
2024/02/14 09:31:04;;;;;;;6.32;5.65;;;12.70;82.20;;;;;;5051036;28;20041;-86
2024/02/14 09:33:29;;;;;;;6.88;5.05;;;12.70;82.20;;;;;;5051341;28;20025;-87
2024/02/14 09:35:55;;;;;;;7.00;5.47;;;12.70;82.10;;;;;;5065813;28;20387;-88
2024/02/14 09:38:21;;;;;;;6.05;5.45;;;12.70;82.10;;;;;;5049076;28;20021;-87
2024/02/14 09:40:51;;;;;;;5.93;5.10;;;12.70;82.20;;;;;;5046244;28;20095;-88
2024/02/14 09:43:34;;;;;;;5.28;4.70;;;12.70;82.20;;;;;;5034172;28;20068;-82
2024/02/14 09:46:02;;;;;;;5.22;4.55;;;12.80;82.20;;;;;;5085996;28;20104;-86
2024/02/14 09:48:30;;;;;;;5.88;5.28;;;12.80;82.20;;;;;;5048260;28;20032;-93
2024/02/14 09:50:56;;;;;;;6.28;5.10;;;12.80;82.20;;;;;;5043499;28;20025;-82
2024/02/14 09:53:23;;;;;;;5.68;4.93;;;12.80;82.20;;;;;;5050078;28;20436;-82
2024/02/14 09:55:50;;;;;;;6.25;5.30;;;12.80;82.10;;;;;;5046779;28;20018;-87
2024/02/14 09:58:17;;;;;;;5.82;5.18;;;12.80;82.10;;;;;;5045706;28;20029;-92
2024/02/14 10:00:43;;;;;;;6.35;5.10;;;12.80;82.10;;;;;;5076692;28;20374;-87
2024/02/14 10:03:09;;;;;;;6.13;5.18;;;12.80;82.10;;;;;;5027444;28;20056;-82
2024/02/14 10:05:37;;;;;;;5.95;5.07;;;12.80;82.10;;;;;;5061521;28;20034;-93
2024/02/14 10:08:05;;;;;;;5.85;5.25;;;12.90;82.20;;;;;;5081516;28;20114;-87
2024/02/14 10:10:35;;;;;;;6.05;5.13;;;12.80;82.10;;;;;;5052451;28;20155;-94
2024/02/14 10:13:03;;;;;;;6.28;4.72;;;12.90;82.20;;;;;;5040294;28;20071;-94
2024/02/14 10:15:30;;;;;;;5.90;4.70;;;12.90;82.10;;;;;;5085121;28;20036;-81
2024/02/14 10:17:58;;;;;;;5.88;5.00;;;12.90;82.10;;;;;;5053091;28;20485;-82
2024/02/14 10:20:26;;;;;;;5.80;5.00;;;12.90;82.20;;;;;;5029820;28;20033;-88
2024/02/14 10:23:02;;;;;;;5.93;5.18;;;12.90;82.10;;;;;;5059490;28;20484;-87
2024/02/14 10:25:29;;;;;;;5.78;4.88;;;12.90;82.10;;;;;;5065769;28;20029;-86
2024/02/14 10:27:55;;;;;;;7.47;5.05;;;12.90;82.10;;;;;;5047442;28;20025;-86
2024/02/14 10:30:21;;;;;;;5.90;5.18;;;12.90;82.10;;;;;;5042259;28;20033;-87
2024/02/14 10:32:48;;;;;;;6.22;5.05;;;13.00;82.10;;;;;;5046781;28;20389;-92
2024/02/14 10:35:15;;;;;;;6.40;5.35;;;13.00;82.10;;;;;;5049718;28;20021;-92
2024/02/14 10:37:42;;;;;;;7.03;5.40;;;13.00;82.10;;;;;;5007329;28;20023;-82
2024/02/14 10:40:11;;;;;;;6.80;5.35;;;13.00;82.10;;;;;;5028198;28;20034;-81
2024/02/14 10:42:37;;;;;;;6.35;5.35;;;13.00;82.10;;;;;;5032245;28;20500;-86
2024/02/14 10:45:04;;;;;;;6.18;4.97;;;13.00;82.10;;;;;;5051686;28;20124;-88
2024/02/14 10:47:35;;;;;;;6.22;4.80;;;13.00;82.10;;;;;;5013172;28;20032;-88
2024/02/14 10:50:05;;;;;;;6.97;5.03;;;13.10;82.20;;;;;;5031533;28;20048;-82
2024/02/14 10:52:33;;;;;;;6.32;5.43;;;13.10;82.10;;;;;;5042738;28;20037;-87
2024/02/14 10:55:02;;;;;;;6.95;5.20;;;13.10;82.10;;;;;;5045165;28;20029;-82
2024/02/14 10:57:29;;;;;;;6.07;5.13;;;13.10;82.10;;;;;;5051931;28;20017;-88
2024/02/14 10:59:57;;;;;;;6.57;5.20;;;13.10;82.10;;;;;;5016197;28;20030;-82
2024/02/14 11:02:24;;;;;;;6.40;5.15;;;13.10;82.10;;;;;;5043730;28;20048;-82
2024/02/14 11:04:53;;;;;;;5.68;4.97;;;13.20;82.20;;;;;;5051700;28;20025;-88
2024/02/14 11:07:22;;;;;;;6.32;5.22;;;13.20;82.10;;;;;;5033801;28;20029;-93
2024/02/14 11:10:10;;;;;;;5.68;4.65;;;13.20;82.10;;;;;;5041387;28;20396;-87
2024/02/14 11:12:39;;;;;;;5.82;5.05;;;13.20;82.10;;;;;;5049013;28;20479;-82
2024/02/14 11:15:25;;;;;;;6.18;5.20;;;13.20;82.70;;;;;;5052088;28;20435;-94
2024/02/14 11:17:59;;;;;;;5.60;4.80;;;13.20;82.10;;;;;;5043229;28;20064;-87
2024/02/14 11:20:33;;;;;;;6.35;5.05;;;13.20;82.10;;;;;;5035577;28;20029;-95
2024/02/14 11:23:11;;;;;;;6.15;5.03;;;13.30;82.20;;;;;;5043926;28;20022;-82
2024/02/14 11:25:38;;;;;;;6.15;5.00;;;13.30;82.20;;;;;;5033898;28;20029;-82
2024/02/14 11:28:21;;;;;;;5.68;4.78;;;13.30;82.20;;;;;;5048217;28;20026;-82
2024/02/14 11:30:48;;;;;;;6.28;5.22;;;13.30;82.20;;;;;;5081114;28;20460;-84
2024/02/14 11:33:18;;;;;;;5.82;5.15;;;13.30;82.20;;;;;;5018355;28;20510;-81
2024/02/14 11:35:46;;;;;;;6.65;5.30;;;13.40;82.30;;;;;;5052091;28;20029;-87
2024/02/14 11:38:16;;;;;;;6.13;4.78;;;13.30;82.20;;;;;;5038496;28;20026;-82
2024/02/14 11:40:43;;;;;;;6.15;4.97;;;13.40;82.30;;;;;;5045001;28;20044;-87
2024/02/14 11:43:16;;;;;;;6.25;5.00;;;13.40;82.20;;;;;;5066375;28;20017;-86
2024/02/14 11:45:43;;;;;;;7.55;5.13;;;13.40;82.20;;;;;;5041249;28;20059;-83
2024/02/14 11:48:13;;;;;;;6.03;5.13;;;13.40;82.20;;;;;;5014663;28;20034;-85
2024/02/14 11:50:40;;;;;;;7.68;5.00;;;13.50;82.20;;;;;;5053295;28;20140;-87
2024/02/14 11:53:09;;;;;;;5.53;4.38;;;13.40;82.20;;;;;;5057026;28;20022;-86
2024/02/14 11:55:37;;;;;;;5.95;4.82;;;13.50;82.20;;;;;;5025767;28;20025;-92
2024/02/14 11:58:13;;;;;;;6.00;5.03;;;13.50;82.20;;;;;;5022343;28;20026;-90
2024/02/14 12:00:42;;;;;;;6.30;4.70;;;13.50;82.20;;;;;;5032019;28;20044;-83
2024/02/14 12:03:32;;;;;;;5.20;4.65;;;13.50;82.20;;;;;;5052358;28;20107;-88
2024/02/14 12:05:58;;;;;;;5.95;4.78;;;13.60;82.20;;;;;;5028667;28;20045;-88
2024/02/14 12:08:30;;;;;;;6.22;5.18;;;13.60;82.20;;;;;;5034774;28;20035;-87
2024/02/14 12:10:58;;;;;;;6.63;5.00;;;13.60;82.20;;;;;;5012376;28;20167;-94
2024/02/14 12:13:32;;;;;;;5.60;4.53;;;13.60;82.20;;;;;;5020158;28;20029;-87
2024/02/14 12:15:59;;;;;;;5.55;4.78;;;13.60;82.20;;;;;;5034846;28;20021;-95
2024/02/14 12:18:25;;;;;;;5.82;4.50;;;13.60;82.20;;;;;;5037167;28;20021;-83
2024/02/14 12:20:51;;;;;;;7.15;4.45;;;13.60;82.10;;;;;;5014092;28;20060;-94
2024/02/14 12:23:18;;;;;;;6.35;4.88;;;13.60;82.10;;;;;;5013894;28;20021;-87
2024/02/14 12:25:48;;;;;;;6.35;4.85;;;13.70;82.20;;;;;;5016329;28;20116;-87
2024/02/14 12:28:17;;;;;;;5.20;4.53;;;13.70;82.10;;;;;;5040368;28;20018;-91
2024/02/14 12:30:55;;;;;;;5.35;4.57;;;13.70;82.10;;;;;;5068425;28;20063;-96
2024/02/14 12:33:23;;;;;;;6.40;4.57;;;13.70;82.10;;;;;;5035638;28;20056;-85
2024/02/14 12:35:50;;;;;;;5.40;4.47;;;13.70;82.10;;;;;;5046302;28;20056;-91
2024/02/14 12:38:22;;;;;;;5.40;4.40;;;13.80;82.20;;;;;;5051286;28;20112;-90
2024/02/14 12:40:54;;;;;;;5.25;4.43;;;13.80;82.20;;;;;;5047973;28;20116;-90
2024/02/14 12:43:19;;;;;;;6.30;4.50;;;13.80;82.20;;;;;;5047608;28;20025;-90
2024/02/14 12:45:46;;;;;;;5.78;4.68;;;13.80;82.20;;;;;;5063607;28;20087;-90
2024/02/14 12:48:14;;;;;;;5.90;4.07;;;13.80;82.10;;;;;;5050623;28;20082;-89